Time;durP1;ratioP1;P1;durP2;ratioP2;P2;SDS_P1;SDS_P2;PMS_P1;PMS_P2;Temp;Humidity;BMP_temperature;BMP_pressure;BME280_temperature;BME280_humidity;BME280_pressure;Samples;Min_cycle;Max_cycle;Signal;HPM_P1;HPM_P2
2022/09/14 00:00:49;;;;;;;8.30;2.80;;;14.30;99.90;;;;;;5052665;28;20083;-45
2022/09/14 00:03:16;;;;;;;7.45;2.40;;;14.10;99.90;;;;;;5051513;28;20071;-44
2022/09/14 00:05:42;;;;;;;7.55;2.50;;;14.10;99.90;;;;;;5052590;28;20032;-45
2022/09/14 00:08:09;;;;;;;6.60;2.53;;;14.10;99.90;;;;;;5052537;28;20147;-44
2022/09/14 00:10:45;;;;;;;6.13;2.17;;;14.20;99.90;;;;;;5052530;28;20399;-44
2022/09/14 00:13:13;;;;;;;5.47;2.40;;;14.30;99.90;;;;;;5051817;28;20095;-45
2022/09/14 00:15:40;;;;;;;8.55;2.63;;;14.30;99.90;;;;;;5052073;28;20048;-44
2022/09/14 00:18:09;;;;;;;7.85;2.80;;;14.40;99.90;;;;;;5052310;28;20041;-47
2022/09/14 00:20:35;;;;;;;6.53;2.63;;;14.40;99.90;;;;;;5052111;28;20068;-44
2022/09/14 00:23:01;;;;;;;6.57;2.83;;;14.40;99.90;;;;;;5050431;28;20127;-44
2022/09/14 00:25:27;;;;;;;5.20;2.47;;;14.30;99.90;;;;;;5050888;28;20048;-45
2022/09/14 00:27:54;;;;;;;4.97;2.60;;;14.40;99.90;;;;;;5052074;28;20392;-44
2022/09/14 00:30:20;;;;;;;6.07;2.80;;;14.30;99.90;;;;;;5051915;28;20041;-44
2022/09/14 00:32:45;;;;;;;6.05;2.95;;;14.30;99.90;;;;;;5052313;28;20380;-44
2022/09/14 00:35:11;;;;;;;5.65;2.85;;;14.30;99.90;;;;;;5051786;28;20033;-45
2022/09/14 00:37:38;;;;;;;5.93;2.80;;;14.30;99.90;;;;;;5052256;28;20108;-45
2022/09/14 00:40:05;;;;;;;6.28;2.90;;;14.30;99.90;;;;;;5052040;28;20044;-44
2022/09/14 00:42:31;;;;;;;7.22;3.03;;;14.30;99.90;;;;;;5052048;28;20049;-44
2022/09/14 00:45:00;;;;;;;5.25;2.80;;;14.30;99.90;;;;;;5051236;28;20048;-46
2022/09/14 00:47:29;;;;;;;6.28;2.55;;;14.30;99.90;;;;;;5051283;28;20076;-46
2022/09/14 00:49:55;;;;;;;6.00;2.65;;;14.20;99.90;;;;;;5051572;28;20041;-44
2022/09/14 00:52:25;;;;;;;7.70;3.30;;;14.20;99.90;;;;;;5051792;28;20033;-44
2022/09/14 00:54:56;;;;;;;8.55;3.58;;;14.20;99.90;;;;;;5051305;28;20041;-45
2022/09/14 00:57:24;;;;;;;6.72;3.42;;;14.20;99.90;;;;;;5051393;28;20076;-47
2022/09/14 00:59:52;;;;;;;9.52;3.85;;;14.20;99.90;;;;;;5050232;28;20037;-46
2022/09/14 01:02:20;;;;;;;6.70;3.33;;;14.20;99.90;;;;;;5050372;28;20040;-49
2022/09/14 01:04:47;;;;;;;6.57;3.30;;;14.10;99.90;;;;;;5051510;28;20062;-46
2022/09/14 01:07:37;;;;;;;5.75;3.38;;;14.00;99.90;;;;;;5051207;28;20075;-48
2022/09/14 01:10:09;;;;;;;7.05;3.70;;;14.00;99.90;;;;;;5051542;28;20451;-47
2022/09/14 01:13:06;;;;;;;9.48;3.20;;;13.90;99.90;;;;;;5051369;28;20037;-46
2022/09/14 01:16:08;;;;;;;5.55;3.30;;;14.00;99.90;;;;;;5047035;28;20408;-46
2022/09/14 01:18:45;;;;;;;7.00;3.28;;;13.80;99.90;;;;;;5051159;28;20037;-46
2022/09/14 01:21:21;;;;;;;8.25;3.42;;;13.80;99.90;;;;;;5051359;28;20033;-45
2022/09/14 01:24:10;;;;;;;6.40;3.25;;;13.90;99.90;;;;;;5051210;28;20045;-48
2022/09/14 01:26:45;;;;;;;6.40;3.17;;;13.90;99.90;;;;;;5033292;28;20048;-47
2022/09/14 01:29:42;;;;;;;6.43;3.17;;;13.90;99.90;;;;;;5051163;28;20041;-47
2022/09/14 01:32:20;;;;;;;5.95;3.20;;;13.90;99.90;;;;;;5045874;28;20474;-45
2022/09/14 01:35:01;;;;;;;6.05;3.28;;;14.00;99.90;;;;;;5051234;28;20503;-47
2022/09/14 01:37:38;;;;;;;5.55;3.03;;;13.90;99.90;;;;;;5051038;28;20036;-45
2022/09/14 01:40:13;;;;;;;5.60;3.13;;;13.80;99.90;;;;;;5050914;28;20123;-45
2022/09/14 01:42:41;;;;;;;7.43;3.30;;;13.80;99.90;;;;;;5050971;28;20044;-45
2022/09/14 01:45:12;;;;;;;7.43;3.40;;;13.70;99.90;;;;;;5050341;28;20071;-46
2022/09/14 01:47:47;;;;;;;6.60;3.40;;;13.80;99.90;;;;;;5051029;28;20033;-44
2022/09/14 01:50:19;;;;;;;8.38;3.70;;;13.90;99.90;;;;;;5050633;28;20037;-47
2022/09/14 01:53:27;;;;;;;4.90;2.85;;;13.80;99.90;;;;;;5048718;28;20120;-46
2022/09/14 01:55:55;;;;;;;7.22;3.53;;;13.80;99.90;;;;;;5049417;28;20128;-49
2022/09/14 01:58:33;;;;;;;6.18;3.50;;;13.60;99.90;;;;;;5050603;28;20028;-46
2022/09/14 02:01:02;;;;;;;4.97;3.00;;;13.60;99.90;;;;;;5051038;28;20364;-45
2022/09/14 02:03:36;;;;;;;7.40;3.58;;;13.60;99.90;;;;;;5050556;28;20029;-48
2022/09/14 02:06:39;;;;;;;6.78;3.10;;;13.70;99.90;;;;;;5050905;28;20029;-45
2022/09/14 02:09:08;;;;;;;6.25;3.35;;;13.80;99.90;;;;;;5028949;28;20049;-46
2022/09/14 02:11:34;;;;;;;5.85;2.90;;;13.60;99.90;;;;;;5050847;28;20503;-49
2022/09/14 02:14:00;;;;;;;5.63;3.10;;;13.50;99.90;;;;;;5050060;28;20088;-45
2022/09/14 02:16:26;;;;;;;4.93;2.83;;;13.50;99.90;;;;;;5050532;28;20041;-46
2022/09/14 02:18:52;;;;;;;6.28;3.22;;;13.60;99.90;;;;;;5049112;28;20052;-47
2022/09/14 02:21:28;;;;;;;6.53;3.28;;;13.70;99.90;;;;;;5049425;28;20048;-45
2022/09/14 02:23:54;;;;;;;6.32;3.00;;;13.60;99.90;;;;;;5050579;28;20120;-45
2022/09/14 02:26:21;;;;;;;6.15;3.20;;;13.70;99.90;;;;;;5051921;28;20039;-46
2022/09/14 02:28:47;;;;;;;6.13;3.05;;;13.60;99.90;;;;;;5054721;28;20040;-45
2022/09/14 02:31:44;;;;;;;5.57;3.00;;;13.70;99.90;;;;;;5054081;28;20059;-47
2022/09/14 02:34:28;;;;;;;6.45;3.45;;;13.80;99.90;;;;;;5054559;28;20073;-50
2022/09/14 02:36:57;;;;;;;;;;;13.80;99.90;;;;;;5054819;28;20049;-49
2022/09/14 02:39:45;;;;;;;7.15;3.50;;;13.90;99.90;;;;;;5052286;28;20315;-46
2022/09/14 02:42:16;;;;;;;8.30;3.58;;;13.80;99.90;;;;;;5054091;28;20028;-48
2022/09/14 02:44:57;;;;;;;6.13;3.55;;;13.90;99.90;;;;;;5053579;28;20045;-47
2022/09/14 02:47:35;;;;;;;5.85;2.90;;;13.80;99.90;;;;;;5054119;28;20099;-49
2022/09/14 02:50:23;;;;;;;6.35;3.28;;;13.70;99.90;;;;;;5054246;28;20102;-46
2022/09/14 02:53:33;;;;;;;6.13;3.28;;;13.90;99.90;;;;;;5053967;28;20084;-49
2022/09/14 02:56:03;;;;;;;6.28;2.78;;;13.90;99.90;;;;;;4953441;28;20058;-46
2022/09/14 02:58:40;;;;;;;4.57;2.60;;;13.90;99.90;;;;;;5041713;28;20044;-45
2022/09/14 03:01:08;;;;;;;8.15;2.92;;;13.90;99.90;;;;;;5054146;28;20518;-46
2022/09/14 03:03:33;;;;;;;6.10;3.10;;;13.90;99.90;;;;;;5036312;28;20491;-49
2022/09/14 03:05:59;;;;;;;3.90;2.60;;;14.00;99.90;;;;;;5053608;28;20387;-47
2022/09/14 03:08:26;;;;;;;5.47;3.10;;;13.70;99.90;;;;;;5052331;28;20041;-45
2022/09/14 03:10:51;;;;;;;3.95;2.42;;;13.70;99.90;;;;;;5053736;28;20045;-47
2022/09/14 03:13:17;;;;;;;5.22;2.92;;;13.80;99.90;;;;;;5052945;28;20499;-49
2022/09/14 03:15:43;;;;;;;5.97;2.95;;;13.70;99.90;;;;;;5053264;28;20056;-46
2022/09/14 03:18:09;;;;;;;6.55;3.05;;;13.70;99.90;;;;;;5053757;28;20122;-47
2022/09/14 03:20:35;;;;;;;4.70;3.17;;;13.70;99.90;;;;;;5053478;28;20116;-46
2022/09/14 03:23:02;;;;;;;5.78;3.20;;;13.80;99.90;;;;;;5051823;28;20061;-45
2022/09/14 03:25:28;;;;;;;6.07;3.38;;;13.90;99.90;;;;;;5053575;28;20048;-47
2022/09/14 03:27:58;;;;;;;4.45;2.78;;;13.90;99.90;;;;;;5053355;28;20041;-45
2022/09/14 03:30:25;;;;;;;6.15;3.13;;;13.80;99.90;;;;;;5053486;28;20069;-44
2022/09/14 03:32:51;;;;;;;6.03;3.22;;;13.70;99.90;;;;;;5053405;28;20083;-47
2022/09/14 03:35:17;;;;;;;7.15;3.67;;;13.70;99.90;;;;;;5052996;28;20427;-48
2022/09/14 03:37:44;;;;;;;7.00;3.35;;;13.70;99.90;;;;;;5052612;28;20028;-48
2022/09/14 03:40:12;;;;;;;4.68;3.60;;;13.70;99.90;;;;;;5053361;28;20372;-48
2022/09/14 03:42:43;;;;;;;5.55;3.75;;;13.60;99.90;;;;;;5053104;28;20051;-46
2022/09/14 03:45:10;;;;;;;5.75;3.67;;;13.60;99.90;;;;;;5034640;28;20087;-45
2022/09/14 03:47:36;;;;;;;5.40;3.78;;;13.60;99.90;;;;;;5052628;28;20048;-44
2022/09/14 03:50:02;;;;;;;7.15;3.95;;;13.50;99.90;;;;;;5052808;28;20044;-47
2022/09/14 03:52:27;;;;;;;6.72;3.80;;;13.60;99.90;;;;;;5052946;28;20037;-46
2022/09/14 03:54:53;;;;;;;7.82;4.28;;;13.60;99.90;;;;;;5053065;28;20091;-46
2022/09/14 03:57:19;;;;;;;9.07;4.53;;;13.70;99.90;;;;;;5052899;28;20102;-46
2022/09/14 03:59:45;;;;;;;6.85;4.40;;;13.70;99.90;;;;;;5052856;28;20063;-46
2022/09/14 04:02:10;;;;;;;5.90;3.85;;;13.70;99.90;;;;;;5051503;28;20070;-47
2022/09/14 04:04:36;;;;;;;4.93;3.67;;;13.70;99.90;;;;;;5052810;28;20033;-45
2022/09/14 04:07:02;;;;;;;6.55;4.28;;;13.70;99.90;;;;;;5052639;28;20040;-45
2022/09/14 04:09:27;;;;;;;5.43;3.58;;;13.80;99.90;;;;;;5051062;28;20593;-43
2022/09/14 04:11:53;;;;;;;5.55;3.95;;;13.80;99.90;;;;;;5052306;28;20076;-46
2022/09/14 04:14:19;;;;;;;5.30;3.70;;;13.80;99.90;;;;;;5051827;28;20053;-45
2022/09/14 04:16:44;;;;;;;5.18;3.42;;;13.80;99.90;;;;;;5052260;28;20471;-47
2022/09/14 04:19:11;;;;;;;6.35;3.50;;;13.80;99.90;;;;;;5052297;28;20411;-47
2022/09/14 04:21:37;;;;;;;5.75;3.20;;;13.90;99.90;;;;;;5051730;28;20037;-45
2022/09/14 04:24:03;;;;;;;5.45;3.30;;;13.80;99.90;;;;;;5033125;28;20045;-45
2022/09/14 04:26:30;;;;;;;5.10;3.42;;;13.80;99.90;;;;;;5052402;28;20029;-47
2022/09/14 04:28:56;;;;;;;5.47;3.17;;;13.70;99.90;;;;;;5052035;28;20033;-46
2022/09/14 04:31:23;;;;;;;5.20;3.15;;;13.60;99.90;;;;;;5052146;28;20263;-45
2022/09/14 04:33:50;;;;;;;7.75;3.50;;;13.70;99.90;;;;;;5052337;28;20437;-46
2022/09/14 04:36:21;;;;;;;6.00;3.38;;;13.70;99.90;;;;;;5051943;28;20032;-45
2022/09/14 04:38:47;;;;;;;8.30;3.85;;;13.70;99.90;;;;;;5052033;28;20037;-46
2022/09/14 04:41:17;;;;;;;7.25;3.58;;;13.80;99.90;;;;;;5052099;28;20109;-47
2022/09/14 04:43:44;;;;;;;8.05;3.85;;;13.80;99.90;;;;;;5051690;28;20495;-45
2022/09/14 04:46:13;;;;;;;7.68;3.80;;;13.70;99.90;;;;;;5051679;28;20032;-48
2022/09/14 04:48:38;;;;;;;6.97;3.38;;;13.80;99.90;;;;;;5051350;28;20511;-43
2022/09/14 04:51:07;;;;;;;6.00;3.45;;;13.90;99.90;;;;;;5051508;28;20076;-45
2022/09/14 04:53:35;;;;;;;6.28;3.70;;;13.80;99.90;;;;;;5049944;28;20380;-47
2022/09/14 04:56:06;;;;;;;6.80;3.45;;;13.80;99.90;;;;;;5051492;28;20033;-45
2022/09/14 04:58:33;;;;;;;7.28;3.60;;;14.00;99.90;;;;;;5051411;28;20047;-45
2022/09/14 05:01:04;;;;;;;7.90;3.65;;;13.90;99.90;;;;;;5051179;28;20040;-45
2022/09/14 05:03:29;;;;;;;7.25;3.53;;;14.00;99.90;;;;;;5051732;28;20048;-43
2022/09/14 05:06:01;;;;;;;6.90;3.58;;;13.90;99.90;;;;;;5051661;28;20476;-45
2022/09/14 05:08:26;;;;;;;8.35;3.85;;;14.00;99.90;;;;;;5051551;28;20395;-45
2022/09/14 05:10:56;;;;;;;10.55;4.28;;;13.90;99.90;;;;;;5051495;28;20044;-47
2022/09/14 05:13:22;;;;;;;8.60;4.07;;;14.10;99.90;;;;;;5050647;28;20045;-46
2022/09/14 05:15:49;;;;;;;6.93;4.10;;;14.00;99.90;;;;;;5051444;28;20045;-47
2022/09/14 05:18:15;;;;;;;7.18;4.20;;;14.00;99.90;;;;;;5051207;28;20506;-47
2022/09/14 05:20:41;;;;;;;6.85;4.50;;;14.00;99.90;;;;;;5051301;28;20064;-49
2022/09/14 05:23:07;;;;;;;7.60;4.43;;;14.00;99.90;;;;;;5051365;28;20488;-46
2022/09/14 05:25:32;;;;;;;6.40;4.70;;;14.00;99.90;;;;;;5051498;28;20041;-45
2022/09/14 05:27:58;;;;;;;7.20;5.07;;;14.00;99.90;;;;;;5050112;28;20045;-47
2022/09/14 05:30:24;;;;;;;6.97;5.18;;;14.00;99.90;;;;;;5050854;28;20048;-46
2022/09/14 05:32:49;;;;;;;9.93;5.60;;;13.90;99.90;;;;;;5051232;28;20037;-45
2022/09/14 05:35:15;;;;;;;8.00;5.18;;;14.00;99.90;;;;;;5051236;28;20498;-47
2022/09/14 05:37:41;;;;;;;7.18;4.60;;;14.00;99.90;;;;;;5048311;28;20033;-45
2022/09/14 05:40:07;;;;;;;7.53;5.07;;;13.90;99.90;;;;;;5049896;28;20029;-49
2022/09/14 05:42:34;;;;;;;8.25;5.82;;;13.90;99.90;;;;;;5051160;28;20040;-46
2022/09/14 05:45:00;;;;;;;8.73;5.32;;;14.10;99.90;;;;;;5050685;28;20454;-43
2022/09/14 05:47:29;;;;;;;7.45;4.90;;;14.10;99.90;;;;;;5032903;28;20029;-45
2022/09/14 05:49:55;;;;;;;8.27;5.28;;;14.00;99.90;;;;;;5050245;28;20116;-44
2022/09/14 05:52:21;;;;;;;7.32;5.35;;;14.20;99.90;;;;;;5050989;28;20071;-48
2022/09/14 05:54:47;;;;;;;6.68;4.95;;;14.00;99.90;;;;;;5048528;28;20064;-46
2022/09/14 05:57:12;;;;;;;9.30;5.60;;;14.00;99.90;;;;;;5049564;28;20124;-43
2022/09/14 05:59:38;;;;;;;9.77;5.25;;;14.00;99.90;;;;;;5050886;28;20116;-46
2022/09/14 06:02:04;;;;;;;9.18;5.40;;;14.00;99.90;;;;;;5050842;28;20041;-46
2022/09/14 06:04:29;;;;;;;7.68;4.97;;;14.10;99.90;;;;;;5050866;28;20044;-46
2022/09/14 06:06:55;;;;;;;8.27;5.30;;;14.10;99.90;;;;;;5050613;28;20041;-45
2022/09/14 06:09:21;;;;;;;8.98;5.53;;;14.10;99.90;;;;;;5050890;28;20033;-44
2022/09/14 06:11:46;;;;;;;9.60;5.45;;;14.10;99.90;;;;;;5050781;28;20112;-48
2022/09/14 06:14:12;;;;;;;7.93;5.40;;;14.00;99.90;;;;;;5050069;28;20056;-47
2022/09/14 06:16:38;;;;;;;8.75;5.38;;;14.10;99.90;;;;;;5050593;28;20973;-47
2022/09/14 06:19:04;;;;;;;8.80;5.05;;;14.00;99.90;;;;;;5050651;28;20091;-46
2022/09/14 06:21:32;;;;;;;9.50;5.30;;;14.10;99.90;;;;;;5050488;28;20408;-49
2022/09/14 06:23:58;;;;;;;8.30;5.65;;;14.20;99.90;;;;;;5048860;28;20037;-48
2022/09/14 06:26:25;;;;;;;9.52;6.13;;;14.20;99.90;;;;;;5050649;28;20037;-48
2022/09/14 06:28:52;;;;;;;8.45;6.13;;;14.20;99.90;;;;;;5050330;28;20128;-50
2022/09/14 06:31:21;;;;;;;11.00;6.00;;;14.20;99.90;;;;;;5032707;28;20111;-47
2022/09/14 06:33:48;;;;;;;10.15;5.60;;;14.30;99.90;;;;;;5050093;28;20041;-47
2022/09/14 06:36:23;;;;;;;11.00;6.07;;;14.40;99.90;;;;;;5050355;28;20044;-45
2022/09/14 06:38:49;;;;;;;10.07;5.80;;;14.40;99.90;;;;;;5050233;28;20135;-48
2022/09/14 06:41:19;;;;;;;14.32;5.90;;;14.30;99.90;;;;;;5050320;28;20404;-45
2022/09/14 06:43:45;;;;;;;6.60;5.22;;;14.40;99.90;;;;;;5050145;28;20041;-49
2022/09/14 06:46:24;;;;;;;7.53;5.65;;;14.50;99.90;;;;;;5030151;28;20041;-48
2022/09/14 06:49:02;;;;;;;7.93;5.63;;;14.50;99.90;;;;;;5048507;28;20437;-48
2022/09/14 06:51:40;;;;;;;9.13;5.38;;;14.60;99.90;;;;;;5047969;28;20037;-46
2022/09/14 06:54:07;;;;;;;9.38;5.75;;;14.60;99.90;;;;;;5047820;28;20039;-46
2022/09/14 06:56:35;;;;;;;9.63;5.45;;;14.50;99.90;;;;;;5048937;28;20032;-47
2022/09/14 06:59:01;;;;;;;9.52;5.18;;;14.60;99.90;;;;;;5040110;28;20186;-46
2022/09/14 07:01:28;;;;;;;10.18;5.38;;;14.80;99.90;;;;;;5042671;28;20488;-48
2022/09/14 07:03:55;;;;;;;9.68;5.25;;;14.70;99.90;;;;;;5042159;28;20059;-46
2022/09/14 07:06:22;;;;;;;10.90;5.20;;;14.90;99.90;;;;;;5042547;28;20041;-49
2022/09/14 07:08:50;;;;;;;12.63;6.90;;;14.80;99.90;;;;;;5041968;28;20033;-46
2022/09/14 07:11:19;;;;;;;10.32;5.85;;;15.00;99.90;;;;;;5025892;28;20032;-45
2022/09/14 07:13:46;;;;;;;12.30;5.60;;;14.90;99.90;;;;;;5045331;28;20091;-46
2022/09/14 07:16:13;;;;;;;10.10;5.65;;;15.00;99.90;;;;;;5047037;28;20069;-47
2022/09/14 07:18:39;;;;;;;9.00;5.82;;;14.90;99.90;;;;;;5047108;28;20375;-46
2022/09/14 07:21:11;;;;;;;10.95;6.07;;;15.10;99.90;;;;;;5045261;28;20033;-44
2022/09/14 07:23:38;;;;;;;12.75;6.35;;;15.20;99.90;;;;;;5045925;28;20029;-46
2022/09/14 07:26:10;;;;;;;10.40;5.70;;;15.20;99.90;;;;;;5046291;28;20123;-49
2022/09/14 07:28:36;;;;;;;12.77;5.90;;;15.30;99.90;;;;;;5046655;28;20517;-48
2022/09/14 07:31:03;;;;;;;12.13;5.40;;;15.50;99.90;;;;;;5045210;28;20041;-47
2022/09/14 07:33:29;;;;;;;10.07;5.47;;;15.40;99.90;;;;;;5046002;28;20719;-47
2022/09/14 07:36:04;;;;;;;10.90;5.90;;;15.60;99.90;;;;;;5047808;28;20072;-46
2022/09/14 07:38:30;;;;;;;9.32;4.68;;;15.70;99.90;;;;;;5028492;28;20037;-46
2022/09/14 07:40:59;;;;;;;12.02;4.85;;;15.70;99.90;;;;;;5050429;28;20631;-46
2022/09/14 07:43:25;;;;;;;9.05;4.97;;;15.90;99.90;;;;;;5051387;28;20037;-52
2022/09/14 07:45:51;;;;;;;12.55;4.72;;;15.90;99.90;;;;;;5052965;28;20144;-51
2022/09/14 07:48:17;;;;;;;8.50;4.15;;;16.00;99.90;;;;;;5053122;28;20115;-47
2022/09/14 07:50:42;;;;;;;10.55;4.32;;;16.10;99.90;;;;;;5051876;28;20048;-51
2022/09/14 07:53:08;;;;;;;8.52;3.92;;;16.10;99.90;;;;;;5034272;28;20056;-53
2022/09/14 07:55:37;;;;;;;11.35;4.38;;;16.20;99.90;;;;;;5048557;28;20541;-49
2022/09/14 07:58:03;;;;;;;9.68;3.97;;;16.30;99.90;;;;;;5047328;28;20080;-48
2022/09/14 08:00:29;;;;;;;7.97;3.50;;;16.30;99.90;;;;;;5050723;28;20048;-49
2022/09/14 08:02:56;;;;;;;7.93;3.97;;;16.40;99.90;;;;;;5052889;28;20045;-47
2022/09/14 08:05:23;;;;;;;10.18;4.53;;;16.60;99.90;;;;;;5052658;28;20037;-48
2022/09/14 08:07:55;;;;;;;16.52;4.63;;;16.50;99.90;;;;;;5049100;28;20043;-49
2022/09/14 08:10:22;;;;;;;9.38;4.20;;;16.50;99.90;;;;;;5051114;28;20376;-49
2022/09/14 08:12:52;;;;;;;11.77;4.30;;;16.60;99.90;;;;;;5051468;28;20384;-51
2022/09/14 08:15:19;;;;;;;10.45;4.10;;;16.70;99.90;;;;;;5048589;28;20080;-50
2022/09/14 08:17:45;;;;;;;7.30;3.15;;;16.80;99.90;;;;;;5050201;28;20037;-51
2022/09/14 08:20:10;;;;;;;10.32;2.80;;;16.80;99.90;;;;;;5050395;28;20527;-47
2022/09/14 08:22:36;;;;;;;9.20;3.25;;;16.80;99.90;;;;;;5050747;28;20032;-52
2022/09/14 08:25:02;;;;;;;7.30;3.53;;;16.80;99.90;;;;;;5048882;28;20041;-49
2022/09/14 08:27:28;;;;;;;12.50;3.88;;;16.80;99.90;;;;;;5051419;28;20044;-48
2022/09/14 08:29:53;;;;;;;8.32;2.90;;;16.90;99.90;;;;;;5051124;28;20117;-49
2022/09/14 08:32:19;;;;;;;7.72;2.30;;;16.90;99.90;;;;;;5050590;28;20047;-52
2022/09/14 08:34:47;;;;;;;10.70;3.20;;;17.00;99.90;;;;;;5049615;28;20037;-49
2022/09/14 08:37:13;;;;;;;9.20;3.05;;;17.00;99.90;;;;;;5049668;28;20051;-48
2022/09/14 08:39:39;;;;;;;8.63;3.15;;;17.10;99.90;;;;;;5050619;28;20045;-49
2022/09/14 08:42:17;;;;;;;8.50;2.90;;;17.30;99.90;;;;;;5050540;28;20039;-50
2022/09/14 08:44:55;;;;;;;8.48;2.58;;;17.30;99.90;;;;;;5031834;28;20047;-49
2022/09/14 08:47:38;;;;;;;9.75;2.33;;;17.40;99.90;;;;;;5050650;28;20041;-49
2022/09/14 08:50:19;;;;;;;6.53;1.80;;;17.40;99.90;;;;;;5048471;28;20095;-48
2022/09/14 08:52:47;;;;;;;8.48;1.40;;;17.50;99.90;;;;;;5050822;28;20384;-51
2022/09/14 08:55:39;;;;;;;4.60;1.15;;;17.60;99.90;;;;;;5049489;28;20041;-47
2022/09/14 08:58:20;;;;;;;4.55;1.02;;;17.60;99.90;;;;;;5049692;28;20041;-48
2022/09/14 09:01:01;;;;;;;7.78;1.52;;;17.80;99.90;;;;;;5050424;28;20028;-53
2022/09/14 09:04:13;;;;;;;6.53;1.27;;;17.80;99.90;;;;;;5050485;28;20041;-47
2022/09/14 09:07:13;;;;;;;7.10;1.50;;;17.80;99.90;;;;;;5049598;28;20131;-49
2022/09/14 09:09:48;;;;;;;5.63;1.30;;;17.90;99.90;;;;;;5050460;28;20067;-48
2022/09/14 09:12:49;;;;;;;4.88;1.00;;;17.80;99.90;;;;;;5031467;28;20041;-50
2022/09/14 09:15:31;;;;;;;5.38;1.10;;;17.90;99.90;;;;;;5047986;28;20550;-50
2022/09/14 09:18:40;;;;;;;4.75;0.93;;;17.90;99.90;;;;;;5046150;28;20545;-51
2022/09/14 09:21:20;;;;;;;5.28;0.82;;;17.90;99.90;;;;;;5037584;28;20044;-47
2022/09/14 09:23:45;;;;;;;7.80;1.25;;;17.90;99.90;;;;;;5047547;28;20052;-49
2022/09/14 09:26:31;;;;;;;4.80;0.80;;;17.90;99.90;;;;;;5050225;28;20045;-49
2022/09/14 09:29:00;;;;;;;5.97;0.82;;;17.90;99.90;;;;;;5049118;28;20037;-50
2022/09/14 09:31:47;;;;;;;4.88;0.98;;;17.80;99.90;;;;;;5050030;28;20044;-47
2022/09/14 09:34:26;;;;;;;6.63;0.93;;;17.80;99.90;;;;;;5050131;28;20420;-49
2022/09/14 09:36:54;;;;;;;5.50;0.90;;;17.90;99.90;;;;;;5048156;28;20041;-50
2022/09/14 09:39:23;;;;;;;4.82;0.88;;;18.00;99.90;;;;;;5049976;28;20032;-49
2022/09/14 09:42:00;;;;;;;3.58;1.00;;;18.00;99.90;;;;;;5049188;28;20124;-47
2022/09/14 09:44:26;;;;;;;5.82;1.02;;;17.90;99.90;;;;;;5048397;28;20527;-49
2022/09/14 09:47:02;;;;;;;4.38;0.82;;;18.00;99.90;;;;;;5050562;28;20116;-47
2022/09/14 09:49:34;;;;;;;5.07;0.60;;;18.10;99.90;;;;;;5051203;28;20402;-47
2022/09/14 09:52:12;;;;;;;3.72;0.80;;;18.10;99.90;;;;;;5051148;28;20040;-47
2022/09/14 09:54:40;;;;;;;4.88;0.70;;;18.00;99.90;;;;;;5050644;28;20482;-48
2022/09/14 09:57:44;;;;;;;4.35;0.80;;;18.10;99.90;;;;;;5050394;28;20029;-46
2022/09/14 10:00:24;;;;;;;3.28;0.70;;;18.10;99.90;;;;;;5045428;28;20053;-49
2022/09/14 10:02:51;;;;;;;5.40;0.70;;;18.10;99.90;;;;;;5050856;28;20120;-46
2022/09/14 10:05:21;;;;;;;7.50;0.95;;;18.10;99.90;;;;;;5050835;28;20059;-47
2022/09/14 10:07:57;;;;;;;5.07;0.77;;;18.20;99.90;;;;;;5050489;28;20112;-46
2022/09/14 10:10:43;;;;;;;4.03;0.70;;;18.20;99.90;;;;;;5050873;28;20064;-47
2022/09/14 10:13:28;;;;;;;3.13;0.60;;;18.30;99.90;;;;;;5049147;28;20107;-48
2022/09/14 10:16:15;;;;;;;4.07;0.70;;;18.30;99.90;;;;;;5049759;28;20140;-46
2022/09/14 10:18:49;;;;;;;3.75;0.75;;;18.30;99.90;;;;;;5050523;28;20037;-49
2022/09/14 10:21:17;;;;;;;4.32;0.70;;;18.60;99.90;;;;;;5050678;28;20487;-50
2022/09/14 10:23:44;;;;;;;3.70;0.73;;;18.70;99.90;;;;;;5050694;28;20044;-47
2022/09/14 10:26:09;;;;;;;3.95;0.57;;;19.00;99.90;;;;;;5046706;28;20036;-48
2022/09/14 10:28:36;;;;;;;3.58;0.80;;;19.20;99.90;;;;;;5048680;28;20444;-47
2022/09/14 10:31:07;;;;;;;3.85;0.60;;;19.30;99.90;;;;;;5044597;28;20044;-46
2022/09/14 10:33:34;;;;;;;2.47;0.57;;;19.50;99.90;;;;;;5030739;28;20037;-49
2022/09/14 10:36:18;;;;;;;2.13;0.60;;;19.50;99.90;;;;;;5047838;28;20087;-46
2022/09/14 10:39:10;;;;;;;4.40;0.82;;;19.30;99.90;;;;;;5045917;28;20052;-45
2022/09/14 10:41:59;;;;;;;2.50;0.50;;;19.20;99.90;;;;;;5047285;28;20453;-49
2022/09/14 10:44:36;;;;;;;4.78;0.63;;;19.30;99.90;;;;;;5061986;28;20040;-48
2022/09/14 10:47:20;;;;;;;3.50;0.60;;;19.40;99.90;;;;;;5046903;28;20033;-49
2022/09/14 10:50:09;;;;;;;3.53;0.77;;;19.20;99.90;;;;;;5049024;28;20052;-49
2022/09/14 10:52:52;;;;;;;4.20;0.82;;;19.20;99.90;;;;;;5050438;28;20373;-49
2022/09/14 10:55:30;;;;;;;4.72;0.80;;;19.30;99.90;;;;;;5050615;28;20041;-47
2022/09/14 10:58:02;;;;;;;3.55;0.60;;;19.30;99.90;;;;;;5050345;28;20056;-48
2022/09/14 11:00:35;;;;;;;5.82;0.90;;;19.40;99.90;;;;;;5049218;28;20037;-48
2022/09/14 11:03:17;;;;;;;4.88;0.50;;;19.40;99.90;;;;;;5051089;28;20029;-50
2022/09/14 11:06:02;;;;;;;2.88;0.75;;;19.50;99.90;;;;;;5050422;28;20101;-46
2022/09/14 11:08:38;;;;;;;3.08;0.65;;;19.60;99.90;;;;;;5050972;28;20494;-47
2022/09/14 11:11:22;;;;;;;2.78;0.70;;;19.50;99.90;;;;;;5050671;28;20136;-47
2022/09/14 11:14:25;;;;;;;2.80;0.70;;;19.50;99.90;;;;;;5050248;28;20037;-45
2022/09/14 11:17:35;;;;;;;2.90;0.60;;;19.50;99.90;;;;;;5049873;28;20055;-46
2022/09/14 11:20:16;;;;;;;4.10;0.70;;;19.60;99.90;;;;;;5004886;28;20049;-49
2022/09/14 11:22:49;;;;;;;2.13;0.40;;;19.60;99.90;;;;;;5049381;28;20099;-46
2022/09/14 11:25:26;;;;;;;3.37;0.63;;;19.60;99.90;;;;;;5050760;28;20135;-45
2022/09/14 11:27:58;;;;;;;1.30;0.35;;;19.70;99.90;;;;;;5052787;28;20418;-46
2022/09/14 11:30:36;;;;;;;2.88;0.63;;;19.70;99.90;;;;;;5051910;28;20037;-47
2022/09/14 11:33:06;;;;;;;5.95;0.70;;;19.60;99.90;;;;;;5033523;28;20076;-45
2022/09/14 11:35:44;;;;;;;4.60;0.60;;;19.70;99.90;;;;;;5048102;28;20052;-48
2022/09/14 11:38:20;;;;;;;3.50;0.55;;;19.60;99.90;;;;;;5039589;28;20037;-46
2022/09/14 11:41:05;;;;;;;3.13;0.68;;;19.50;99.90;;;;;;5043855;28;20037;-48
2022/09/14 11:43:53;;;;;;;4.07;0.60;;;19.80;99.90;;;;;;5053378;28;20044;-47
2022/09/14 11:46:45;;;;;;;3.10;0.60;;;20.30;99.90;;;;;;5052272;28;20040;-47
2022/09/14 11:49:33;;;;;;;3.65;0.63;;;20.90;99.90;;;;;;5052343;28;20047;-51
2022/09/14 11:52:11;;;;;;;1.70;0.47;;;20.90;99.90;;;;;;5052512;28;20037;-49
2022/09/14 11:54:39;;;;;;;4.10;0.65;;;21.00;99.90;;;;;;5052125;28;20039;-48
2022/09/14 11:57:06;;;;;;;4.38;0.68;;;21.10;99.90;;;;;;5051602;28;20063;-47
2022/09/14 11:59:38;;;;;;;3.10;0.57;;;21.20;99.90;;;;;;5052583;28;20404;-48
2022/09/14 12:02:21;;;;;;;1.00;0.30;;;21.50;99.90;;;;;;5051950;28;20067;-47
2022/09/14 12:05:09;;;;;;;1.95;0.38;;;22.10;99.90;;;;;;5033594;28;20041;-49
2022/09/14 12:10:17;;;;;;;5.82;0.47;;;22.60;99.90;;;;;;5052048;28;20080;-48
2022/09/14 12:12:51;;;;;;;2.65;0.50;;;22.20;99.90;;;;;;5050611;28;20472;-46
2022/09/14 12:15:26;;;;;;;3.75;0.47;;;21.80;99.90;;;;;;5051709;28;20056;-48
2022/09/14 12:17:52;;;;;;;1.92;0.43;;;21.30;99.40;;;;;;5050500;28;20045;-46
2022/09/14 12:20:42;;;;;;;6.15;0.50;;;21.10;99.90;;;;;;5049040;28;20037;-46
2022/09/14 12:23:21;;;;;;;2.35;0.40;;;20.90;99.90;;;;;;5043561;28;20040;-47
2022/09/14 12:26:05;;;;;;;3.22;0.65;;;20.80;99.90;;;;;;5045489;28;20033;-49
2022/09/14 12:28:39;;;;;;;3.28;0.60;;;20.70;99.90;;;;;;5047474;28;20369;-46
2022/09/14 12:31:05;;;;;;;2.40;0.57;;;20.60;99.90;;;;;;5046212;28;20151;-47
2022/09/14 12:33:33;;;;;;;1.77;0.40;;;20.60;99.90;;;;;;5047558;28;20064;-50
2022/09/14 12:36:01;;;;;;;4.53;0.57;;;21.10;99.90;;;;;;5046165;28;20091;-46
2022/09/14 12:38:29;;;;;;;3.50;0.65;;;20.90;99.90;;;;;;5047425;28;20037;-46
2022/09/14 12:41:07;;;;;;;4.72;0.60;;;20.70;99.40;;;;;;5028107;28;20038;-47
2022/09/14 12:43:35;;;;;;;3.92;0.40;;;20.60;99.40;;;;;;5048285;28;20116;-49
2022/09/14 12:46:21;;;;;;;2.97;0.50;;;20.50;99.90;;;;;;5046283;28;20041;-47
2022/09/14 12:48:47;;;;;;;4.65;0.68;;;20.40;99.70;;;;;;5031601;28;20063;-46
2022/09/14 12:51:31;;;;;;;3.75;0.50;;;20.30;99.90;;;;;;5032466;28;20052;-50
2022/09/14 12:53:56;;;;;;;;;;;20.10;99.90;;;;;;5050699;28;20061;-47
2022/09/14 12:56:34;;;;;;;1.70;0.55;;;20.10;99.90;;;;;;5050799;28;20011;-46
2022/09/14 12:59:32;;;;;;;3.92;0.57;;;20.30;99.90;;;;;;5051230;28;20037;-50
2022/09/14 13:02:59;;;;;;;2.90;0.40;;;20.70;99.90;;;;;;5049238;28;20043;-48
2022/09/14 13:05:28;;;;;;;2.40;0.57;;;21.50;99.90;;;;;;4966946;28;20054;-49
2022/09/14 13:07:54;;;;;;;2.58;0.52;;;22.00;99.70;;;;;;4967606;28;20046;-48
2022/09/14 13:10:33;;;;;;;4.85;0.75;;;22.30;99.50;;;;;;5019877;28;20055;-47
2022/09/14 13:13:07;;;;;;;4.65;0.70;;;22.70;99.10;;;;;;5050475;28;20488;-47
2022/09/14 13:15:35;;;;;;;;;;;22.80;97.60;;;;;;5050054;28;20056;-46